createdAt,value
2023-05-15T00:00:39.492Z,12.50
2023-05-15T00:03:20.983Z,12.60
2023-05-15T00:08:35.649Z,12.50
2023-05-15T00:16:01.435Z,12.50
2023-05-15T00:18:52.695Z,12.40
2023-05-15T00:21:27.795Z,12.40
2023-05-15T00:24:19.206Z,12.50
2023-05-15T00:27:35.494Z,12.40
2023-05-15T00:30:53.465Z,12.40
2023-05-15T00:33:46.018Z,12.50
2023-05-15T00:39:51.326Z,12.20
2023-05-15T00:45:46.080Z,12.30
2023-05-15T00:48:54.027Z,12.30
2023-05-15T00:51:42.573Z,12.20
2023-05-15T00:54:13.664Z,12.20
2023-05-15T00:56:54.767Z,12.40
2023-05-15T01:00:01.043Z,12.30
2023-05-15T01:03:00.171Z,12.10
2023-05-15T01:05:32.676Z,12.00
2023-05-15T01:09:23.294Z,12.00
2023-05-15T01:12:05.016Z,11.80
2023-05-15T01:14:38.560Z,11.80
2023-05-15T01:17:07.112Z,11.90
2023-05-15T01:19:38.881Z,12.00
2023-05-15T01:23:02.336Z,12.00
2023-05-15T01:25:38.289Z,11.90
2023-05-15T01:29:01.667Z,11.90
2023-05-15T01:31:35.383Z,11.80
2023-05-15T01:34:56.809Z,11.70
2023-05-15T01:48:48.306Z,11.60
2023-05-15T01:51:16.615Z,11.60
2023-05-15T01:54:49.722Z,11.60
2023-05-15T01:57:19.134Z,11.60
2023-05-15T02:01:15.618Z,11.60
2023-05-15T02:35:06.891Z,11.30
2023-05-15T02:49:09.152Z,11.10
2023-05-15T02:51:37.400Z,11.10
2023-05-15T02:54:05.406Z,11.10
2023-05-15T02:56:41.305Z,11.00
2023-05-15T02:59:11.620Z,11.00
2023-05-15T03:01:56.188Z,11.00
2023-05-15T03:04:26.640Z,11.00
2023-05-15T03:07:18.780Z,11.10
2023-05-15T03:11:17.390Z,11.00
2023-05-15T03:17:16.898Z,10.90
2023-05-15T03:21:08.432Z,10.90
2023-05-15T03:28:52.476Z,11.00
2023-05-15T03:31:47.110Z,10.90
2023-05-15T03:34:34.846Z,10.80
2023-05-15T03:37:07.842Z,10.70
2023-05-15T03:40:01.966Z,10.80
2023-05-15T03:42:48.762Z,10.70
2023-05-15T03:45:44.120Z,10.70
2023-05-15T03:48:14.336Z,10.70
2023-05-15T03:57:32.444Z,10.70
2023-05-15T04:03:03.589Z,10.80
2023-05-15T04:06:57.465Z,10.70
2023-05-15T04:09:33.049Z,10.80
2023-05-15T04:50:02.053Z,11.00
2023-05-15T04:52:36.276Z,11.20
2023-05-15T04:55:16.252Z,11.20
2023-05-15T04:57:54.906Z,11.20
2023-05-15T05:00:29.746Z,11.30
2023-05-15T05:03:00.952Z,11.40
2023-05-15T05:05:37.981Z,11.40
2023-05-15T05:11:27.149Z,11.50
2023-05-15T05:14:03.517Z,11.50
2023-05-15T05:16:47.463Z,11.50
2023-05-15T05:19:21.219Z,11.40
2023-05-15T05:21:54.706Z,11.50
2023-05-15T05:24:38.338Z,11.50
2023-05-15T05:27:11.733Z,11.60
2023-05-15T05:30:17.282Z,11.60
2023-05-15T05:32:51.991Z,11.60
2023-05-15T05:35:42.940Z,11.60
2023-05-15T05:38:53.515Z,11.60
2023-05-15T05:41:48.187Z,11.60
2023-05-15T05:44:35.312Z,11.60
2023-05-15T05:47:16.921Z,11.60
2023-05-15T05:49:48.752Z,11.60
2023-05-15T05:52:58.096Z,11.80
2023-05-15T05:55:20.721Z,11.80
2023-05-15T05:58:18.314Z,11.80
2023-05-15T06:01:05.628Z,11.90
2023-05-15T06:03:46.174Z,11.80
2023-05-15T06:06:34.212Z,11.90
2023-05-15T06:09:27.937Z,12.00
2023-05-15T06:12:03.323Z,12.00
2023-05-15T06:22:39.636Z,12.30
2023-05-15T06:25:18.909Z,12.40
2023-05-15T06:30:58.607Z,12.30
2023-05-15T06:43:04.924Z,12.60
2023-05-15T06:45:59.499Z,12.60
2023-05-15T06:49:51.549Z,12.70
2023-05-15T06:51:27.996Z,12.70
2023-05-15T06:54:49.516Z,12.70
2023-05-15T07:01:46.115Z,12.80
2023-05-15T07:14:17.184Z,12.80
2023-05-15T07:18:36.633Z,13.00
2023-05-15T07:48:39.777Z,13.90
2023-05-15T07:51:07.451Z,13.90
2023-05-15T07:57:20.811Z,13.90
2023-05-15T07:59:57.079Z,14.10
2023-05-15T08:02:27.148Z,14.20
2023-05-15T08:04:55.072Z,14.40
2023-05-15T08:07:22.576Z,14.30
2023-05-15T08:09:50.388Z,14.40
2023-05-15T08:12:34.219Z,14.30
2023-05-15T08:15:13.769Z,14.40
2023-05-15T08:18:23.970Z,14.30
2023-05-15T08:21:04.138Z,14.10
2023-05-15T08:23:40.335Z,14.00
2023-05-15T08:26:24.817Z,14.10
2023-05-15T08:28:56.844Z,14.20
2023-05-15T08:31:46.485Z,14.30
2023-05-15T08:34:34.499Z,14.30
2023-05-15T08:37:05.322Z,14.40
2023-05-15T08:39:32.582Z,14.40
2023-05-15T08:42:28.278Z,14.40
2023-05-15T08:45:04.060Z,14.60
2023-05-15T08:47:35.925Z,14.40
2023-05-15T08:50:16.801Z,14.60
2023-05-15T08:52:49.836Z,14.60
2023-05-15T08:55:18.081Z,14.50
2023-05-15T08:57:52.904Z,14.50
2023-05-15T09:00:22.499Z,14.50
2023-05-15T09:02:54.283Z,14.50
2023-05-15T09:05:21.860Z,14.50
2023-05-15T09:07:52.774Z,14.40
2023-05-15T09:10:20.291Z,14.50
2023-05-15T09:12:55.090Z,14.60
2023-05-15T09:15:25.561Z,14.60
2023-05-15T09:17:55.440Z,14.70
2023-05-15T09:20:28.509Z,14.80
2023-05-15T09:23:00.084Z,14.50
2023-05-15T09:25:44.929Z,14.50
2023-05-15T09:28:30.973Z,14.60
2023-05-15T09:31:02.333Z,14.80
2023-05-15T09:33:34.698Z,14.70
2023-05-15T09:36:04.773Z,14.60
2023-05-15T09:38:40.653Z,14.70
2023-05-15T09:41:12.700Z,14.60
2023-05-15T09:43:42.253Z,14.60
2023-05-15T09:46:12.587Z,14.50
2023-05-15T09:48:41.480Z,14.40
2023-05-15T09:51:19.684Z,14.60
2023-05-15T09:53:54.403Z,14.50
2023-05-15T09:56:22.542Z,14.60
2023-05-15T09:58:57.178Z,14.70
2023-05-15T10:01:25.966Z,14.70
2023-05-15T10:04:07.386Z,14.60
2023-05-15T10:06:43.146Z,14.60
2023-05-15T10:09:11.468Z,14.60
2023-05-15T10:11:43.654Z,14.50
2023-05-15T10:14:13.577Z,14.50
2023-05-15T10:16:45.503Z,14.50
2023-05-15T10:19:24.759Z,14.50
2023-05-15T10:21:53.971Z,14.50
2023-05-15T10:24:31.233Z,14.50
2023-05-15T10:26:59.484Z,14.50
2023-05-15T10:29:30.589Z,14.30
2023-05-15T10:32:01.458Z,14.10
2023-05-15T10:34:35.302Z,14.30
2023-05-15T10:37:13.444Z,14.30
2023-05-15T10:39:48.517Z,14.40
2023-05-15T10:42:19.784Z,14.50
2023-05-15T10:44:56.353Z,14.60
2023-05-15T10:47:23.794Z,14.50
2023-05-15T10:49:51.114Z,14.40
2023-05-15T10:52:24.063Z,14.40
2023-05-15T10:54:53.685Z,14.50
2023-05-15T10:57:24.200Z,14.50
2023-05-15T10:59:51.711Z,14.50
2023-05-15T11:02:23.379Z,14.60
2023-05-15T11:05:04.080Z,14.60
2023-05-15T11:07:35.173Z,14.60
2023-05-15T11:10:28.286Z,14.60
2023-05-15T11:13:00.387Z,14.60
2023-05-15T11:15:28.973Z,14.60
2023-05-15T11:18:15.110Z,14.70
2023-05-15T11:21:00.865Z,14.70
2023-05-15T11:23:41.566Z,14.70
2023-05-15T11:26:09.359Z,14.70
2023-05-15T11:28:43.687Z,14.90
2023-05-15T11:31:12.228Z,14.90
2023-05-15T11:33:40.715Z,14.80
2023-05-15T11:36:08.689Z,14.90
2023-05-15T11:38:42.610Z,15.00
2023-05-15T11:41:22.101Z,15.10
2023-05-15T11:43:50.531Z,15.40
2023-05-15T11:46:17.969Z,15.60
2023-05-15T11:48:48.050Z,15.80
2023-05-15T11:51:24.345Z,16.00
2023-05-15T11:53:53.477Z,15.90
2023-05-15T11:56:25.017Z,15.80
2023-05-15T11:58:57.057Z,15.70
2023-05-15T12:01:24.979Z,15.70
2023-05-15T12:03:54.199Z,15.60
2023-05-15T12:06:22.026Z,15.50
2023-05-15T12:08:53.472Z,15.50
2023-05-15T12:11:24.687Z,15.60
2023-05-15T12:13:55.695Z,15.70
2023-05-15T12:16:28.910Z,15.80
2023-05-15T12:19:04.576Z,15.70
2023-05-15T12:21:32.375Z,15.80
2023-05-15T12:24:07.655Z,15.80
2023-05-15T12:26:36.309Z,15.80
2023-05-15T12:29:04.442Z,15.80
2023-05-15T12:31:33.575Z,15.70
2023-05-15T12:34:01.028Z,15.70
2023-05-15T12:36:30.055Z,15.70
2023-05-15T12:38:58.174Z,15.80
2023-05-15T12:41:31.308Z,15.90
2023-05-15T12:43:58.604Z,15.90
2023-05-15T12:46:29.564Z,15.80
2023-05-15T12:48:59.699Z,15.70
2023-05-15T12:51:27.542Z,15.70
2023-05-15T12:53:54.945Z,15.60
2023-05-15T12:56:22.383Z,15.60
2023-05-15T12:58:50.007Z,15.30
2023-05-15T13:01:17.746Z,15.30
2023-05-15T13:03:45.645Z,15.20
2023-05-15T13:06:13.036Z,15.30
2023-05-15T13:08:41.977Z,15.40
2023-05-15T13:11:13.978Z,15.40
2023-05-15T13:13:48.756Z,15.40
2023-05-15T13:16:29.814Z,15.60
2023-05-15T13:19:00.222Z,15.90
2023-05-15T13:21:29.867Z,15.70
2023-05-15T13:23:57.479Z,15.70
2023-05-15T13:26:24.739Z,15.70
2023-05-15T13:28:52.503Z,15.90
2023-05-15T13:31:22.687Z,16.00
2023-05-15T13:33:49.774Z,16.10
2023-05-15T13:36:17.048Z,16.10
2023-05-15T13:38:44.333Z,16.30
2023-05-15T13:41:11.650Z,16.40
2023-05-15T13:43:39.257Z,16.20
2023-05-15T13:46:06.479Z,16.00
2023-05-15T13:48:33.866Z,15.80
2023-05-15T13:51:01.032Z,15.90
2023-05-15T13:53:28.014Z,15.60
2023-05-15T13:55:56.198Z,15.60
2023-05-15T13:58:26.710Z,15.60
2023-05-15T14:00:53.990Z,15.60
2023-05-15T14:03:21.473Z,15.30
2023-05-15T14:05:50.315Z,15.20
2023-05-15T14:08:17.513Z,15.40
2023-05-15T14:10:44.535Z,15.30
2023-05-15T14:13:11.664Z,15.30
2023-05-15T14:15:38.744Z,15.20
2023-05-15T14:18:05.813Z,15.40
2023-05-15T14:20:35.513Z,15.50
2023-05-15T14:23:02.662Z,15.40
2023-05-15T14:25:29.707Z,15.40
2023-05-15T14:27:56.836Z,15.30
2023-05-15T14:30:24.335Z,15.10
2023-05-15T14:32:51.709Z,15.00
2023-05-15T14:35:18.868Z,14.90
2023-05-15T14:37:53.723Z,14.80
2023-05-15T14:43:09.016Z,14.70
2023-05-15T14:45:36.069Z,14.60
2023-05-15T14:48:03.229Z,14.70
2023-05-15T14:50:30.422Z,14.60
2023-05-15T14:52:57.403Z,14.60
2023-05-15T14:55:24.647Z,14.70
2023-05-15T14:57:51.800Z,14.60
2023-05-15T15:00:20.785Z,14.60
2023-05-15T15:02:48.181Z,14.60
2023-05-15T15:05:16.050Z,14.60
2023-05-15T15:08:06.655Z,14.40
2023-05-15T15:10:38.024Z,14.50
2023-05-15T15:13:10.166Z,14.40
2023-05-15T15:15:59.372Z,14.40
2023-05-15T15:19:00.556Z,14.30
2023-05-15T15:21:33.950Z,14.10
2023-05-15T15:24:09.550Z,14.10
2023-05-15T15:26:44.174Z,14.00
2023-05-15T15:29:11.578Z,13.90
2023-05-15T15:31:38.907Z,14.00
2023-05-15T15:34:08.489Z,14.00
2023-05-15T15:36:44.566Z,14.00
2023-05-15T15:39:13.183Z,14.00
2023-05-15T15:41:42.978Z,14.20
2023-05-15T15:44:10.279Z,14.20
2023-05-15T15:46:37.319Z,13.90
2023-05-15T15:49:06.484Z,13.90
2023-05-15T15:51:34.029Z,14.00
2023-05-15T15:54:10.155Z,14.10
2023-05-15T16:00:16.080Z,14.20
2023-05-15T16:02:43.470Z,14.10
2023-05-15T16:05:10.898Z,14.00
2023-05-15T16:07:38.046Z,13.90
2023-05-15T16:10:12.504Z,13.90
2023-05-15T16:12:58.193Z,13.80
2023-05-15T16:15:43.973Z,13.90
2023-05-15T16:18:21.159Z,13.90
2023-05-15T16:21:15.698Z,13.90
2023-05-15T16:23:43.190Z,13.90
2023-05-15T16:26:16.259Z,13.90
2023-05-15T16:28:48.848Z,14.10
2023-05-15T16:31:16.297Z,14.20
2023-05-15T16:33:43.410Z,14.10
2023-05-15T16:36:10.391Z,14.10
2023-05-15T16:38:37.421Z,14.00
2023-05-15T16:41:04.645Z,13.70
2023-05-15T16:43:31.860Z,13.70
2023-05-15T16:45:59.072Z,13.70
2023-05-15T16:48:27.708Z,13.60
2023-05-15T16:50:55.055Z,13.60
2023-05-15T16:53:22.640Z,13.60
2023-05-15T16:55:50.769Z,13.50
2023-05-15T16:58:18.005Z,13.40
2023-05-15T17:00:45.203Z,13.40
2023-05-15T17:03:13.076Z,13.40
2023-05-15T17:05:40.588Z,13.40
2023-05-15T17:08:07.741Z,13.40
2023-05-15T17:10:36.152Z,13.30
2023-05-15T17:13:03.123Z,13.30
2023-05-15T17:15:30.368Z,13.20
2023-05-15T17:17:58.802Z,13.00
2023-05-15T17:20:27.382Z,12.90
2023-05-15T17:22:54.426Z,12.90
2023-05-15T17:26:59.736Z,13.00
2023-05-15T17:29:56.757Z,13.00
2023-05-15T17:32:52.770Z,12.80
2023-05-15T17:39:01.344Z,12.70
2023-05-15T17:41:32.816Z,12.80
2023-05-15T17:44:17.813Z,12.60
2023-05-15T17:47:09.112Z,12.70
2023-05-15T17:49:42.252Z,12.70
2023-05-15T17:52:27.087Z,12.70
2023-05-15T17:54:56.908Z,12.60
2023-05-15T17:57:28.675Z,12.70
2023-05-15T17:59:56.463Z,12.60
2023-05-15T18:02:24.002Z,12.60
2023-05-15T18:04:52.094Z,12.50
2023-05-15T18:07:19.749Z,12.60
2023-05-15T18:09:51.203Z,12.60
2023-05-15T18:12:20.958Z,12.60
2023-05-15T18:14:50.357Z,12.60
2023-05-15T18:17:18.401Z,12.60
2023-05-15T18:19:46.268Z,12.50
2023-05-15T18:22:26.858Z,12.50
2023-05-15T18:24:55.339Z,12.50
2023-05-15T18:27:24.409Z,12.50
2023-05-15T18:29:53.133Z,12.40
2023-05-15T18:32:26.843Z,12.30
2023-05-15T18:53:50.564Z,12.30
2023-05-15T18:56:26.420Z,12.20
2023-05-15T18:59:03.342Z,12.30
2023-05-15T19:01:37.702Z,12.30
2023-05-15T19:04:28.755Z,12.20
2023-05-15T19:11:34.464Z,12.10
2023-05-15T19:14:04.302Z,11.90
2023-05-15T19:16:51.466Z,11.90
2023-05-15T19:19:25.894Z,11.90
2023-05-15T19:23:14.022Z,11.90
2023-05-15T19:25:22.015Z,11.80
2023-05-15T19:27:58.185Z,11.90
2023-05-15T19:31:27.820Z,11.80
2023-05-15T19:34:01.071Z,11.70
2023-05-15T19:37:00.651Z,11.80
2023-05-15T19:39:28.318Z,11.80
2023-05-15T19:46:12.016Z,11.70
2023-05-15T19:50:14.877Z,11.60
2023-05-15T19:56:59.212Z,11.50
2023-05-15T20:03:01.156Z,11.60
2023-05-15T20:06:17.800Z,11.50
2023-05-15T20:08:50.298Z,11.60
2023-05-15T20:11:21.452Z,11.50
2023-05-15T20:15:23.833Z,11.40
2023-05-15T20:18:32.911Z,11.50
2023-05-15T20:21:29.727Z,11.30
2023-05-15T20:25:26.782Z,11.40
2023-05-15T20:29:07.003Z,11.30
2023-05-15T20:35:00.870Z,11.50
2023-05-15T20:37:47.955Z,11.40
2023-05-15T20:41:11.647Z,11.40
2023-05-15T21:06:31.987Z,11.20
2023-05-15T21:09:04.960Z,11.30
2023-05-15T21:11:32.637Z,11.30
2023-05-15T21:14:02.459Z,11.30
2023-05-15T21:16:30.128Z,11.30
2023-05-15T21:18:58.705Z,11.30
2023-05-15T21:21:26.059Z,11.30
2023-05-15T21:23:53.356Z,11.20
2023-05-15T21:26:23.286Z,11.30
2023-05-15T21:28:50.422Z,11.30
2023-05-15T21:31:17.750Z,11.20
2023-05-15T21:33:45.020Z,11.20
2023-05-15T21:36:12.691Z,11.00
2023-05-15T21:38:40.171Z,11.00
2023-05-15T21:41:07.296Z,11.00
2023-05-15T21:43:34.742Z,11.10
2023-05-15T21:46:02.075Z,11.10
2023-05-15T21:48:31.308Z,10.80
2023-05-15T21:50:58.666Z,10.80
2023-05-15T21:53:26.120Z,10.80
2023-05-15T21:55:59.617Z,10.70
2023-05-15T21:58:27.181Z,10.80
2023-05-15T22:00:54.532Z,10.70
2023-05-15T22:03:22.081Z,10.60
2023-05-15T22:05:50.409Z,10.60
2023-05-15T22:08:17.485Z,10.70
2023-05-15T22:10:45.108Z,10.60
2023-05-15T22:13:13.978Z,10.60
2023-05-15T22:15:41.172Z,10.60
2023-05-15T22:18:08.326Z,10.50
2023-05-15T22:20:36.268Z,10.50
2023-05-15T22:23:03.625Z,10.40
2023-05-15T22:25:31.530Z,10.40
2023-05-15T22:27:58.807Z,10.40
2023-05-15T22:30:26.119Z,10.30
2023-05-15T22:32:53.402Z,10.30
2023-05-15T22:35:20.726Z,10.30
2023-05-15T22:37:49.070Z,10.30
2023-05-15T22:40:16.313Z,10.30
2023-05-15T22:42:43.566Z,10.20
2023-05-15T22:45:14.237Z,10.20
2023-05-15T22:47:41.345Z,10.10
2023-05-15T22:50:09.018Z,10.30
2023-05-15T22:52:36.001Z,10.20
2023-05-15T22:55:03.222Z,10.20
2023-05-15T22:57:30.351Z,10.20
2023-05-15T22:59:57.342Z,10.10
2023-05-15T23:02:25.900Z,10.10
2023-05-15T23:04:53.128Z,10.10
2023-05-15T23:07:20.593Z,10.10
2023-05-15T23:09:47.904Z,10.00
2023-05-15T23:12:15.054Z,10.10
2023-05-15T23:14:42.244Z,10.00
2023-05-15T23:17:09.469Z,10.00
2023-05-15T23:19:36.595Z,10.00
2023-05-15T23:22:03.878Z,10.00
2023-05-15T23:24:31.182Z,9.90
2023-05-15T23:26:58.347Z,9.90
2023-05-15T23:29:25.623Z,9.80
2023-05-15T23:31:55.379Z,9.80
2023-05-15T23:34:22.695Z,9.80
2023-05-15T23:36:49.869Z,9.90
2023-05-15T23:39:16.976Z,9.80
2023-05-15T23:41:44.161Z,9.80
2023-05-15T23:44:11.221Z,9.70
2023-05-15T23:46:39.717Z,9.70
2023-05-15T23:49:07.279Z,9.80
2023-05-15T23:51:34.448Z,9.70
2023-05-15T23:54:01.690Z,9.60
2023-05-15T23:56:30.225Z,9.60
2023-05-15T23:58:57.354Z,9.70
